Time,TemperatureF,DewpointF,PressureIn,WindDirection,WindDirectionDegrees,WindSpeedMPH,WindSpeedGustMPH,Humidity,HourlyPrecipIn,Conditions,Clouds,dailyrainin,SoftwareType,DateUTC
2013-02-16 00:07:00,30.6,22.0,30.42,SW,214,0.0,0.0,70,0.00,,,0.00,weatherlink.com 1.10,2013-02-16 06:07:00,
2013-02-16 00:22:00,31.6,21.0,30.42,WSW,248,0.0,0.0,64,0.00,,,0.00,weatherlink.com 1.10,2013-02-16 06:22:00,
2013-02-16 00:37:00,30.9,21.0,30.41,WSW,248,0.0,0.0,67,0.00,,,0.00,weatherlink.com 1.10,2013-02-16 06:37:00,
2013-02-16 00:52:00,30.4,20.0,30.42,WSW,248,0.0,1.0,66,0.00,,,0.00,weatherlink.com 1.10,2013-02-16 06:52:00,
2013-02-16 01:07:00,29.6,21.0,30.42,WSW,248,0.0,0.0,69,0.00,,,0.00,weatherlink.com 1.10,2013-02-16 07:07:00,
2013-02-16 01:22:00,28.9,21.0,30.42,WSW,248,0.0,0.0,71,0.00,,,0.00,weatherlink.com 1.10,2013-02-16 07:22:00,
2013-02-16 01:37:00,28.6,21.0,30.43,NW,311,0.0,2.0,72,0.00,,,0.00,weatherlink.com 1.10,2013-02-16 07:37:00,
2013-02-16 01:52:00,30.1,21.0,30.43,NNW,347,0.0,2.0,70,0.00,,,0.00,weatherlink.com 1.10,2013-02-16 07:52:00,
2013-02-16 02:07:00,30.1,22.0,30.44,North,360,0.0,2.0,71,0.00,,,0.00,weatherlink.com 1.10,2013-02-16 08:07:00,
2013-02-16 02:22:00,30.9,23.0,30.44,NNW,340,0.0,2.0,71,0.00,,,0.00,weatherlink.com 1.10,2013-02-16 08:22:00,
2013-02-16 02:37:00,30.9,23.0,30.43,NNW,330,0.0,1.0,71,0.00,,,0.00,weatherlink.com 1.10,2013-02-16 08:37:00,
2013-02-16 02:52:00,30.5,23.0,30.43,West,279,0.0,0.0,73,0.00,,,0.00,weatherlink.com 1.10,2013-02-16 08:52:00,
2013-02-16 03:07:00,30.5,23.0,30.43,NNW,340,0.0,0.0,75,0.00,,,0.00,weatherlink.com 1.10,2013-02-16 09:07:00,
2013-02-16 03:22:00,30.0,23.0,30.43,West,276,0.0,0.0,75,0.00,,,0.00,weatherlink.com 1.10,2013-02-16 09:22:00,
2013-02-16 03:37:00,29.0,22.0,30.42,West,277,0.0,1.0,76,0.00,,,0.00,weatherlink.com 1.10,2013-02-16 09:37:00,
2013-02-16 03:52:00,28.9,23.0,30.42,WSW,252,0.0,0.0,79,0.00,,,0.00,weatherlink.com 1.10,2013-02-16 09:52:00,
2013-02-16 04:07:00,29.1,24.0,30.41,WSW,251,0.0,0.0,80,0.00,,,0.00,weatherlink.com 1.10,2013-02-16 10:07:00,
2013-02-16 04:22:00,28.9,24.0,30.42,WSW,252,0.0,0.0,81,0.00,,,0.00,weatherlink.com 1.10,2013-02-16 10:22:00,
2013-02-16 04:37:00,28.0,23.0,30.42,WSW,252,0.0,0.0,81,0.00,,,0.00,weatherlink.com 1.10,2013-02-16 10:37:00,
2013-02-16 04:52:00,-999.0,-99.9,30.42,North,-999,-999.0,-999.0,-999,0.00,,,0.00,weatherlink.com 1.10,2013-02-16 10:52:00,
2013-02-16 05:07:00,-999.0,-99.9,30.42,North,-999,-999.0,-999.0,-999,0.00,,,0.00,weatherlink.com 1.10,2013-02-16 11:07:00,
2013-02-16 05:22:00,-999.0,-99.9,30.42,North,-999,-999.0,-999.0,-999,0.00,,,0.00,weatherlink.com 1.10,2013-02-16 11:22:00,
2013-02-16 05:37:00,-999.0,-99.9,30.42,North,-999,-999.0,-999.0,-999,0.00,,,0.00,weatherlink.com 1.10,2013-02-16 11:37:00,
2013-02-16 05:52:00,-999.0,-99.9,30.43,North,-999,-999.0,-999.0,-999,0.00,,,0.00,weatherlink.com 1.10,2013-02-16 11:52:00,
2013-02-16 06:07:00,-999.0,-99.9,30.43,North,-999,-999.0,-999.0,-999,0.00,,,0.00,weatherlink.com 1.10,2013-02-16 12:07:00,
2013-02-16 06:22:00,-999.0,-99.9,30.43,North,-999,-999.0,-999.0,-999,0.00,,,0.00,weatherlink.com 1.10,2013-02-16 12:22:00,
2013-02-16 06:37:00,-999.0,-99.9,30.44,North,-999,-999.0,-999.0,-999,0.00,,,0.00,weatherlink.com 1.10,2013-02-16 12:37:00,
2013-02-16 06:53:00,-999.0,-99.9,30.43,North,-999,-999.0,-999.0,-999,0.00,,,0.00,weatherlink.com 1.10,2013-02-16 12:53:00,
2013-02-16 07:08:00,-999.0,-99.9,30.43,North,-999,-999.0,-999.0,-999,0.00,,,0.00,weatherlink.com 1.10,2013-02-16 13:08:00,
2013-02-16 07:23:00,-999.0,-99.9,30.43,North,-999,-999.0,-999.0,-999,0.00,,,0.00,weatherlink.com 1.10,2013-02-16 13:23:00,
2013-02-16 07:38:00,27.7,-99.9,30.43,NE,34,0.0,-999.0,-999,0.00,,,0.00,weatherlink.com 1.10,2013-02-16 13:38:00,
2013-02-16 07:53:00,28.3,26.0,30.43,NW,314,0.0,0.0,92,0.00,,,0.00,weatherlink.com 1.10,2013-02-16 13:53:00,
2013-02-16 08:08:00,30.2,29.0,30.45,WNW,291,0.0,0.0,93,0.00,,,0.00,weatherlink.com 1.10,2013-02-16 14:08:00,
2013-02-16 08:23:00,32.1,30.0,30.44,WNW,293,0.0,2.0,90,0.00,,,0.00,weatherlink.com 1.10,2013-02-16 14:23:00,
2013-02-16 08:38:00,33.3,30.0,30.45,NNW,343,2.0,3.0,87,0.00,,,0.00,weatherlink.com 1.10,2013-02-16 14:38:00,
2013-02-16 08:53:00,34.0,30.0,30.46,NNE,22,4.0,5.0,84,0.00,,,0.00,weatherlink.com 1.10,2013-02-16 14:53:00,
2013-02-16 09:08:00,34.7,30.0,30.46,NE,40,2.0,5.0,82,0.00,,,0.00,weatherlink.com 1.10,2013-02-16 15:08:00,
2013-02-16 09:23:00,35.8,29.0,30.46,North,354,3.0,5.0,76,0.00,,,0.00,weatherlink.com 1.10,2013-02-16 15:23:00,
2013-02-16 09:38:00,36.5,27.0,30.46,North,4,2.0,5.0,68,0.00,,,0.00,weatherlink.com 1.10,2013-02-16 15:38:00,
2013-02-16 09:53:00,37.4,26.0,30.45,NW,318,1.0,5.0,63,0.00,,,0.00,weatherlink.com 1.10,2013-02-16 15:53:00,
2013-02-16 10:08:00,38.2,26.0,30.46,West,273,0.0,6.0,62,0.00,,,0.00,weatherlink.com 1.10,2013-02-16 16:08:00,
2013-02-16 10:23:00,39.1,26.0,30.46,ENE,62,2.0,5.0,59,0.00,,,0.00,weatherlink.com 1.10,2013-02-16 16:23:00,
2013-02-16 10:38:00,39.7,25.0,30.45,ENE,58,4.0,5.0,56,0.00,,,0.00,weatherlink.com 1.10,2013-02-16 16:38:00,
2013-02-16 10:53:00,40.3,24.0,30.45,North,11,0.0,6.0,53,0.00,,,0.00,weatherlink.com 1.10,2013-02-16 16:53:00,
2013-02-16 11:08:00,41.3,24.0,30.43,SW,224,0.0,6.0,51,0.00,,,0.00,weatherlink.com 1.10,2013-02-16 17:08:00,
2013-02-16 11:23:00,42.2,24.0,30.43,NW,311,1.0,5.0,49,0.00,,,0.00,weatherlink.com 1.10,2013-02-16 17:23:00,
2013-02-16 11:38:00,42.6,25.0,30.42,NNE,15,3.0,6.0,51,0.00,,,0.00,weatherlink.com 1.10,2013-02-16 17:38:00,
2013-02-16 11:53:00,43.0,23.0,30.42,NE,37,5.0,6.0,46,0.00,,,0.00,weatherlink.com 1.10,2013-02-16 17:53:00,
2013-02-16 12:08:00,43.7,23.0,30.41,NE,42,2.0,7.0,44,0.00,,,0.00,weatherlink.com 1.10,2013-02-16 18:08:00,
2013-02-16 12:23:00,43.9,24.0,30.40,NW,321,0.0,5.0,45,0.00,,,0.00,weatherlink.com 1.10,2013-02-16 18:23:00,
2013-02-16 12:38:00,45.2,24.0,30.39,ESE,108,0.0,6.0,43,0.00,,,0.00,weatherlink.com 1.10,2013-02-16 18:38:00,
2013-02-16 13:08:00,46.3,23.0,30.37,SE,144,5.0,8.0,40,0.00,,,0.00,weatherlink.com 1.10,2013-02-16 19:08:00,
2013-02-16 13:23:00,47.5,24.0,30.35,SW,222,3.0,9.0,40,0.00,,,0.00,weatherlink.com 1.10,2013-02-16 19:23:00,
2013-02-16 13:38:00,48.1,24.0,30.33,North,1,3.0,4.0,39,0.00,,,0.00,weatherlink.com 1.10,2013-02-16 19:38:00,
2013-02-16 13:53:00,48.5,24.0,30.32,SW,218,1.0,5.0,38,0.00,,,0.00,weatherlink.com 1.10,2013-02-16 19:53:00,
2013-02-16 14:08:00,49.7,24.0,30.31,SE,142,1.0,-999.0,37,-99.99,,,0.00,weatherlink.com 1.10,2013-02-16 20:08:00,
2013-02-16 14:23:00,50.5,24.0,30.30,West,280,8.0,9.0,35,0.00,,,0.00,weatherlink.com 1.10,2013-02-16 20:23:00,
2013-02-16 14:38:00,50.5,24.0,30.29,SSE,162,1.0,8.0,36,0.00,,,0.00,weatherlink.com 1.10,2013-02-16 20:38:00,
2013-02-16 14:53:00,50.8,25.0,30.28,SW,221,3.0,10.0,36,0.00,,,0.00,weatherlink.com 1.10,2013-02-16 20:53:00,
2013-02-16 15:08:00,51.4,26.0,30.28,WSW,240,4.0,10.0,37,0.00,,,0.00,weatherlink.com 1.10,2013-02-16 21:08:00,
2013-02-16 15:23:00,52.1,26.0,30.27,SW,217,2.0,10.0,36,0.00,,,0.00,weatherlink.com 1.10,2013-02-16 21:23:00,
2013-02-16 15:38:00,51.9,26.0,30.27,WSW,237,0.0,11.0,36,0.00,,,0.00,weatherlink.com 1.10,2013-02-16 21:38:00,
2013-02-16 15:53:00,52.1,25.0,30.26,West,262,7.0,9.0,35,0.00,,,0.00,weatherlink.com 1.10,2013-02-16 21:53:00,
2013-02-16 16:09:00,52.5,26.0,30.25,WSW,240,12.0,12.0,36,0.00,,,0.00,weatherlink.com 1.10,2013-02-16 22:09:00,
2013-02-16 16:24:00,52.8,27.0,30.25,SW,218,4.0,9.0,37,0.00,,,0.00,weatherlink.com 1.10,2013-02-16 22:24:00,
2013-02-16 16:39:00,53.1,27.0,30.25,South,179,2.0,7.0,37,0.00,,,0.00,weatherlink.com 1.10,2013-02-16 22:39:00,
2013-02-16 16:54:00,52.8,28.0,30.24,SW,219,0.0,10.0,38,0.00,,,0.00,weatherlink.com 1.10,2013-02-16 22:54:00,
2013-02-16 17:09:00,52.8,28.0,30.23,WSW,238,4.0,7.0,38,0.00,,,0.00,weatherlink.com 1.10,2013-02-16 23:09:00,
2013-02-16 17:24:00,51.8,28.0,30.23,South,169,1.0,7.0,40,0.00,,,0.00,weatherlink.com 1.10,2013-02-16 23:24:00,
2013-02-16 17:39:00,50.7,28.0,30.22,SW,228,0.0,8.0,42,0.00,,,0.00,weatherlink.com 1.10,2013-02-16 23:39:00,
2013-02-16 17:54:00,49.8,28.0,30.22,SSW,204,2.0,5.0,44,0.00,,,0.00,weatherlink.com 1.10,2013-02-16 23:54:00,
2013-02-16 18:09:00,48.9,29.0,30.21,SSW,210,1.0,2.0,46,0.00,,,0.00,weatherlink.com 1.10,2013-02-17 00:09:00,
2013-02-16 18:24:00,47.7,29.0,30.21,SW,214,0.0,1.0,48,0.00,,,0.00,weatherlink.com 1.10,2013-02-17 00:24:00,
2013-02-16 18:39:00,45.1,28.0,30.21,SSW,211,0.0,0.0,52,0.00,,,0.00,weatherlink.com 1.10,2013-02-17 00:39:00,
2013-02-16 18:54:00,42.8,27.0,30.21,SSW,211,0.0,0.0,55,0.00,,,0.00,weatherlink.com 1.10,2013-02-17 00:54:00,
2013-02-16 19:09:00,41.1,27.0,30.21,SSW,207,0.0,0.0,58,0.00,,,0.00,weatherlink.com 1.10,2013-02-17 01:09:00,
2013-02-16 19:24:00,40.1,27.0,30.21,SSW,210,0.0,0.0,60,0.00,,,0.00,weatherlink.com 1.10,2013-02-17 01:24:00,
2013-02-16 19:39:00,38.7,27.0,30.21,SSW,210,0.0,0.0,62,0.00,,,0.00,weatherlink.com 1.10,2013-02-17 01:39:00,
2013-02-16 19:54:00,38.4,27.0,30.21,SW,215,0.0,0.0,64,0.00,,,0.00,weatherlink.com 1.10,2013-02-17 01:54:00,
2013-02-16 20:09:00,39.1,28.0,30.20,SW,228,0.0,0.0,64,0.00,,,0.00,weatherlink.com 1.10,2013-02-17 02:09:00,
2013-02-16 20:24:00,40.9,28.0,30.20,SSE,156,0.0,4.0,61,0.00,,,0.00,weatherlink.com 1.10,2013-02-17 02:24:00,
2013-02-16 20:39:00,41.0,28.0,30.20,SSE,152,1.0,2.0,61,0.00,,,0.00,weatherlink.com 1.10,2013-02-17 02:39:00,
2013-02-16 20:54:00,42.7,29.0,30.20,South,191,3.0,6.0,59,0.00,,,0.00,weatherlink.com 1.10,2013-02-17 02:54:00,
2013-02-16 21:09:00,43.1,29.0,30.19,SSE,152,3.0,6.0,59,0.00,,,0.00,weatherlink.com 1.10,2013-02-17 03:09:00,
2013-02-16 21:24:00,42.9,30.0,30.19,South,180,2.0,7.0,60,0.00,,,0.00,weatherlink.com 1.10,2013-02-17 03:24:00,
2013-02-16 21:39:00,42.5,30.0,30.20,ESE,116,3.0,6.0,61,0.00,,,0.00,weatherlink.com 1.10,2013-02-17 03:39:00,
2013-02-16 21:54:00,42.1,29.0,30.20,SSW,207,1.0,3.0,61,0.00,,,0.00,weatherlink.com 1.10,2013-02-17 03:54:00,
2013-02-16 22:09:00,41.7,29.0,30.20,South,176,1.0,3.0,62,0.00,,,0.00,weatherlink.com 1.10,2013-02-17 04:09:00,
2013-02-16 22:24:00,41.3,29.0,30.20,SE,135,0.0,5.0,63,0.00,,,0.00,weatherlink.com 1.10,2013-02-17 04:24:00,
2013-02-16 22:39:00,40.9,29.0,30.20,SSW,204,0.0,5.0,63,0.00,,,0.00,weatherlink.com 1.10,2013-02-17 04:39:00,
2013-02-16 22:54:00,40.4,29.0,30.19,SSE,167,2.0,5.0,64,0.00,,,0.00,weatherlink.com 1.10,2013-02-17 04:54:00,
2013-02-16 23:09:00,40.5,29.0,30.18,SSE,150,1.0,7.0,64,0.00,,,0.00,weatherlink.com 1.10,2013-02-17 05:09:00,
2013-02-16 23:24:00,40.3,29.0,30.18,SE,143,5.0,6.0,64,0.00,,,0.00,weatherlink.com 1.10,2013-02-17 05:24:00,
2013-02-16 23:39:00,40.7,29.0,30.17,WSW,245,2.0,7.0,63,0.00,,,0.00,weatherlink.com 1.10,2013-02-17 05:39:00,
2013-02-16 23:54:00,40.9,29.0,30.16,SSW,207,4.0,7.0,62,0.00,,,0.00,weatherlink.com 1.10,2013-02-17 05:54:00,